Brooklyn, Ohio
Current Conditions -  °F | °C
As of 10:12 PM on Monday 26 Jan 2015 (Local Time) from KBKL Reporting Station
Light Snow Light Snow  
Wind Chill: 10°   Ceiling: 2100
Heat Index: 22°   Visibility: 4mi
Dew Point: 17°   Wind: 13mph
Humidity: 82%   Direction: 20°NNE
Pressure: 29.93"   Gusts: NA
Location:  41.44°N, 81.74°W
Report Text: KBKL 270312Z AUTO 02011KT 4SM -SN FEW009 SCT015 OVC021 M06/M08 A2993 RMK AO2 SNB0255 P0000 T10561083 TSNO
Loading
Personal Weather Stations






























Interactive Weather Map New forecast layout! Learn more

10-Day Weather Forecast

Advertisements
Track Severe Weather on mobile